Time;durP1;ratioP1;P1;durP2;ratioP2;P2;SDS_P1;SDS_P2;PMS_P1;PMS_P2;Temp;Humidity;BMP_temperature;BMP_pressure;BME280_temperature;BME280_humidity;BME280_pressure;Samples;Min_cycle;Max_cycle;Signal;HPM_P1;HPM_P2
2023/10/30 00:01:28;;;;;;;5.57;1.20;;;11.60;99.90;;;;;;4999282;28;20045;-78
2023/10/30 00:03:54;;;;;;;6.60;1.38;;;11.50;99.90;;;;;;4982660;28;20495;-79
2023/10/30 00:19:46;;;;;;;6.95;1.13;;;11.50;99.90;;;;;;4985174;28;20034;-78
2023/10/30 00:22:12;;;;;;;4.10;0.70;;;11.60;99.90;;;;;;4983316;28;20042;-79
2023/10/30 00:24:38;;;;;;;5.18;0.90;;;11.60;99.90;;;;;;5004085;28;20101;-77
2023/10/30 00:27:04;;;;;;;6.68;1.20;;;11.60;99.90;;;;;;4992835;28;20088;-77
2023/10/30 00:29:29;;;;;;;2.30;0.60;;;11.70;99.90;;;;;;5001342;28;20042;-77
2023/10/30 00:31:55;;;;;;;8.23;2.10;;;11.70;99.90;;;;;;4995897;28;20046;-78
2023/10/30 00:34:21;;;;;;;7.43;1.30;;;11.70;99.90;;;;;;4966779;28;20118;-78
2023/10/30 00:36:46;;;;;;;5.88;0.75;;;11.70;99.90;;;;;;4983634;28;20508;-79
2023/10/30 00:39:12;;;;;;;7.13;1.45;;;11.80;99.90;;;;;;4983480;28;20366;-77
2023/10/30 00:41:37;;;;;;;4.30;0.95;;;11.80;99.90;;;;;;4982061;28;20035;-77
2023/10/30 00:44:03;;;;;;;5.53;0.95;;;11.80;99.90;;;;;;4995290;28;20035;-79
2023/10/30 00:46:29;;;;;;;5.68;0.65;;;11.80;99.90;;;;;;4978730;28;20114;-78
2023/10/30 00:48:54;;;;;;;7.85;1.55;;;11.80;99.90;;;;;;4983243;28;20042;-77
2023/10/30 00:51:20;;;;;;;5.72;1.25;;;11.80;99.90;;;;;;4992941;28;20030;-77
2023/10/30 00:53:45;;;;;;;7.22;1.20;;;11.70;99.90;;;;;;4983797;28;20026;-77
2023/10/30 00:56:11;;;;;;;1.90;0.63;;;11.70;99.90;;;;;;4981284;28;20039;-79
2023/10/30 00:58:37;;;;;;;5.20;0.77;;;11.70;99.90;;;;;;4966909;28;20113;-78
2023/10/30 01:01:02;;;;;;;6.20;0.93;;;11.70;99.90;;;;;;4994529;28;20059;-78
2023/10/30 01:03:28;;;;;;;10.38;1.10;;;11.70;99.90;;;;;;5011050;28;20042;-78
2023/10/30 01:05:57;;;;;;;4.78;1.08;;;11.70;99.90;;;;;;4998418;28;20034;-78
2023/10/30 01:08:23;;;;;;;6.28;1.15;;;11.70;99.90;;;;;;5001251;28;20813;-77
2023/10/30 01:10:48;;;;;;;9.88;1.38;;;11.70;99.90;;;;;;4967499;28;20030;-78
2023/10/30 01:13:14;;;;;;;5.97;1.90;;;11.70;99.90;;;;;;4981948;28;20065;-78
2023/10/30 01:15:40;;;;;;;6.72;1.02;;;11.60;99.90;;;;;;5012014;28;20100;-78
2023/10/30 01:18:05;;;;;;;9.07;1.13;;;11.70;99.90;;;;;;4981740;28;20061;-78
2023/10/30 01:20:31;;;;;;;5.35;1.75;;;11.80;99.90;;;;;;5011733;28;20254;-77
2023/10/30 01:22:57;;;;;;;5.05;0.77;;;11.70;99.90;;;;;;4980000;28;20105;-77
2023/10/30 01:25:22;;;;;;;8.63;1.08;;;11.80;99.90;;;;;;4982751;28;20035;-78
2023/10/30 01:27:49;;;;;;;8.70;1.27;;;11.80;99.90;;;;;;4983380;28;20045;-77
2023/10/30 01:30:15;;;;;;;3.67;0.70;;;11.80;99.90;;;;;;5012317;28;20141;-77
2023/10/30 01:32:40;;;;;;;6.75;1.50;;;11.80;99.90;;;;;;4965512;28;20133;-79
2023/10/30 01:35:06;;;;;;;7.05;1.10;;;11.70;99.90;;;;;;5002442;28;20030;-77
2023/10/30 01:37:31;;;;;;;4.95;1.17;;;11.70;99.90;;;;;;4984136;28;20564;-77
2023/10/30 01:39:57;;;;;;;4.88;0.95;;;11.70;99.90;;;;;;4995616;28;20038;-77
2023/10/30 01:42:23;;;;;;;5.15;0.60;;;11.70;99.90;;;;;;5012757;28;20042;-78
2023/10/30 01:44:55;;;;;;;10.18;1.58;;;11.80;99.90;;;;;;4983323;28;20395;-77
2023/10/30 01:47:22;;;;;;;6.05;1.77;;;11.70;99.90;;;;;;4998355;28;20030;-77
2023/10/30 01:49:47;;;;;;;4.68;1.17;;;11.80;99.90;;;;;;4982361;28;20042;-76
2023/10/30 01:52:13;;;;;;;11.10;1.90;;;11.80;99.90;;;;;;4983426;28;20104;-78
2023/10/30 01:54:40;;;;;;;12.85;1.45;;;11.80;99.90;;;;;;4996831;28;20031;-77
2023/10/30 01:57:05;;;;;;;5.75;1.25;;;11.80;99.90;;;;;;4996139;28;20043;-78
2023/10/30 01:59:31;;;;;;;9.70;1.10;;;11.80;99.90;;;;;;4982138;28;20053;-76
2023/10/30 02:01:56;;;;;;;11.02;1.45;;;11.80;99.90;;;;;;4983780;28;20050;-77
2023/10/30 02:04:22;;;;;;;4.13;1.10;;;11.80;99.90;;;;;;4966881;28;20486;-77
2023/10/30 02:06:48;;;;;;;5.70;0.77;;;11.90;99.90;;;;;;4983668;28;20042;-75
2023/10/30 02:09:15;;;;;;;6.55;1.08;;;11.80;99.90;;;;;;4997030;28;20050;-80
2023/10/30 02:11:41;;;;;;;4.15;0.70;;;11.90;99.90;;;;;;4979833;28;20042;-79
2023/10/30 02:14:06;;;;;;;4.40;0.80;;;11.90;99.90;;;;;;4985161;28;20034;-78
2023/10/30 02:16:32;;;;;;;5.68;1.00;;;11.90;99.90;;;;;;4984532;28;20101;-78
2023/10/30 02:18:57;;;;;;;9.80;1.30;;;11.90;99.90;;;;;;4966507;28;20045;-78
2023/10/30 02:21:23;;;;;;;5.75;1.60;;;11.70;99.90;;;;;;4982863;28;20117;-77
2023/10/30 02:23:49;;;;;;;11.20;1.20;;;11.80;99.90;;;;;;4983266;28;20030;-79
2023/10/30 02:26:15;;;;;;;7.45;1.15;;;11.80;99.90;;;;;;4995024;28;20302;-79
2023/10/30 02:28:40;;;;;;;4.45;1.23;;;11.80;99.90;;;;;;4983194;28;20105;-77
2023/10/30 02:31:06;;;;;;;5.85;0.93;;;11.80;99.90;;;;;;4981536;28;20439;-78
2023/10/30 02:33:32;;;;;;;9.55;1.33;;;11.80;99.90;;;;;;4965733;28;20097;-78
2023/10/30 02:35:57;;;;;;;10.25;1.52;;;11.90;99.90;;;;;;4963650;28;20034;-78
2023/10/30 02:38:23;;;;;;;8.55;1.40;;;11.90;99.90;;;;;;4996522;28;20026;-78
2023/10/30 02:40:48;;;;;;;9.90;1.20;;;11.80;99.90;;;;;;4993929;28;20034;-77
2023/10/30 02:43:14;;;;;;;6.00;1.40;;;11.80;99.90;;;;;;4991575;28;20046;-78
2023/10/30 02:45:39;;;;;;;9.50;1.20;;;11.80;99.90;;;;;;5013789;28;20034;-79
2023/10/30 02:48:05;;;;;;;8.80;1.08;;;11.80;99.90;;;;;;4985698;28;20040;-78
2023/10/30 02:50:31;;;;;;;8.88;1.25;;;11.80;99.90;;;;;;4968970;28;20049;-78
2023/10/30 02:52:57;;;;;;;7.60;1.45;;;11.80;99.90;;;;;;4968725;28;20398;-78
2023/10/30 02:55:22;;;;;;;9.50;1.58;;;11.70;99.90;;;;;;4968325;28;20053;-77
2023/10/30 02:57:48;;;;;;;3.78;0.80;;;11.70;99.90;;;;;;4985761;28;20152;-76
2023/10/30 03:00:14;;;;;;;6.50;1.65;;;11.70;99.90;;;;;;4999615;28;20833;-79
2023/10/30 03:02:39;;;;;;;8.13;1.60;;;11.70;99.90;;;;;;4993575;28;20034;-79
2023/10/30 03:05:05;;;;;;;7.78;1.55;;;11.70;99.90;;;;;;4968752;28;20041;-78
2023/10/30 03:07:32;;;;;;;4.18;0.93;;;11.70;99.90;;;;;;4985344;28;20089;-77
2023/10/30 03:09:57;;;;;;;6.90;0.98;;;11.60;99.90;;;;;;4966450;28;20113;-78
2023/10/30 03:12:23;;;;;;;6.45;1.15;;;11.70;99.90;;;;;;4982483;28;20176;-77
2023/10/30 03:14:49;;;;;;;5.22;0.93;;;11.70;99.90;;;;;;4985230;28;20049;-78
2023/10/30 03:20:54;;;;;;;10.90;1.50;;;11.60;99.90;;;;;;4986800;28;20109;-79
2023/10/30 03:23:20;;;;;;;11.02;2.13;;;11.60;99.90;;;;;;4964940;28;20042;-78
2023/10/30 03:25:46;;;;;;;5.70;1.52;;;11.60;99.90;;;;;;4986204;28;20058;-78
2023/10/30 03:28:12;;;;;;;6.05;1.10;;;11.60;99.90;;;;;;5014815;28;20070;-77
2023/10/30 03:30:37;;;;;;;9.70;1.27;;;11.60;99.90;;;;;;4987425;28;20061;-78
2023/10/30 03:33:04;;;;;;;3.28;0.90;;;11.60;99.90;;;;;;4967319;28;20038;-78
2023/10/30 03:35:30;;;;;;;10.40;1.10;;;11.50;99.90;;;;;;4984723;28;20065;-78
2023/10/30 03:37:55;;;;;;;13.05;1.45;;;11.50;99.90;;;;;;4998717;28;20034;-78
2023/10/30 03:40:21;;;;;;;8.35;1.92;;;11.50;99.90;;;;;;4984118;28;20077;-78
2023/10/30 03:42:46;;;;;;;9.57;1.33;;;11.50;99.90;;;;;;4984571;28;20046;-78
2023/10/30 03:45:12;;;;;;;9.20;1.15;;;11.50;99.90;;;;;;5016019;28;20026;-78
2023/10/30 03:47:37;;;;;;;8.98;1.27;;;11.50;99.90;;;;;;4996776;28;20030;-78
2023/10/30 03:50:05;;;;;;;4.70;1.13;;;11.50;99.90;;;;;;4984357;28;20026;-77
2023/10/30 03:52:31;;;;;;;5.72;1.20;;;11.50;99.90;;;;;;4980488;28;20109;-77
2023/10/30 03:55:03;;;;;;;7.80;1.02;;;11.50;99.90;;;;;;4999242;28;21774;-79
2023/10/30 03:57:29;;;;;;;6.50;1.38;;;11.60;99.90;;;;;;4998825;28;20082;-78
2023/10/30 03:59:54;;;;;;;7.50;1.88;;;11.50;99.90;;;;;;4985878;28;20070;-78
2023/10/30 04:02:20;;;;;;;10.18;1.00;;;11.50;99.90;;;;;;4982082;28;20536;-78
2023/10/30 04:04:45;;;;;;;5.72;1.40;;;11.50;99.90;;;;;;4987106;28;20399;-77
2023/10/30 04:07:11;;;;;;;8.40;1.08;;;11.50;99.90;;;;;;4968423;28;20429;-78
2023/10/30 04:09:37;;;;;;;9.80;1.20;;;11.50;99.90;;;;;;4969005;28;20097;-78
2023/10/30 04:12:03;;;;;;;7.10;1.92;;;11.50;99.90;;;;;;4984438;28;20108;-77
2023/10/30 04:14:30;;;;;;;5.43;1.27;;;11.50;99.90;;;;;;4994973;28;20408;-79
2023/10/30 04:17:02;;;;;;;8.60;1.00;;;11.50;99.90;;;;;;4983799;28;20521;-77
2023/10/30 04:19:27;;;;;;;8.73;1.38;;;11.40;99.90;;;;;;4995724;28;20513;-78
2023/10/30 04:21:53;;;;;;;3.78;1.00;;;11.40;99.90;;;;;;4999521;28;20034;-79
2023/10/30 04:24:18;;;;;;;9.10;1.05;;;11.40;99.90;;;;;;4983706;28;20030;-78
2023/10/30 04:26:44;;;;;;;9.40;1.35;;;11.40;99.90;;;;;;5000515;28;20042;-78
2023/10/30 04:29:10;;;;;;;7.85;1.42;;;11.40;99.90;;;;;;4984671;28;20039;-78
2023/10/30 04:31:35;;;;;;;3.55;0.75;;;11.40;99.90;;;;;;4983832;28;20035;-77
2023/10/30 04:34:01;;;;;;;5.30;1.30;;;11.40;99.90;;;;;;4984317;28;20039;-78
2023/10/30 04:36:26;;;;;;;7.78;1.10;;;11.40;99.90;;;;;;4983443;28;20506;-78
2023/10/30 04:38:52;;;;;;;7.75;1.00;;;11.40;99.90;;;;;;4983441;28;20042;-79
2023/10/30 04:41:17;;;;;;;5.35;1.00;;;11.30;99.90;;;;;;4981271;28;20034;-78
2023/10/30 04:43:43;;;;;;;6.32;1.02;;;11.30;99.90;;;;;;4984458;28;20108;-78
2023/10/30 04:46:09;;;;;;;4.82;1.00;;;11.30;99.90;;;;;;4984617;28;20046;-78
2023/10/30 04:48:34;;;;;;;8.60;1.35;;;11.40;99.90;;;;;;4963974;28;20030;-78
2023/10/30 04:51:00;;;;;;;7.78;1.27;;;11.40;99.90;;;;;;4968383;28;20130;-78
2023/10/30 04:53:29;;;;;;;8.52;1.45;;;11.30;99.90;;;;;;4982939;28;20038;-78
2023/10/30 04:55:56;;;;;;;9.93;1.27;;;11.30;99.90;;;;;;4993154;28;20039;-77
2023/10/30 04:58:22;;;;;;;3.20;0.70;;;11.30;99.90;;;;;;5014596;28;20430;-78
2023/10/30 05:00:47;;;;;;;6.20;1.38;;;11.30;99.90;;;;;;4999768;28;20030;-79
2023/10/30 05:03:13;;;;;;;8.32;1.33;;;11.30;99.90;;;;;;4984143;28;20543;-78
2023/10/30 05:05:39;;;;;;;14.90;1.75;;;11.30;99.90;;;;;;4985111;28;20069;-78
2023/10/30 05:08:04;;;;;;;6.07;1.17;;;11.30;99.90;;;;;;4996631;28;20047;-78
2023/10/30 05:10:30;;;;;;;2.17;0.70;;;11.20;99.90;;;;;;4968116;28;20113;-76
2023/10/30 05:12:55;;;;;;;8.13;1.30;;;11.30;99.90;;;;;;4980554;28;20037;-76
2023/10/30 05:15:21;;;;;;;4.18;0.88;;;11.30;99.90;;;;;;4967626;28;20058;-76
2023/10/30 05:17:47;;;;;;;5.53;1.23;;;11.20;99.90;;;;;;4984828;28;20538;-76
2023/10/30 05:20:12;;;;;;;8.27;1.52;;;11.20;99.90;;;;;;4997021;28;20070;-77
2023/10/30 05:22:39;;;;;;;6.47;0.95;;;11.30;99.90;;;;;;4997773;28;20383;-77
2023/10/30 05:25:05;;;;;;;8.48;1.30;;;11.30;99.90;;;;;;4998359;28;20763;-77
2023/10/30 05:27:32;;;;;;;10.18;1.30;;;11.30;99.90;;;;;;4984874;28;20049;-78
2023/10/30 05:29:57;;;;;;;9.40;1.48;;;11.30;99.90;;;;;;4997389;28;20499;-77
2023/10/30 05:32:23;;;;;;;7.68;1.23;;;11.30;99.90;;;;;;4982996;28;20030;-77
2023/10/30 05:34:49;;;;;;;7.57;1.30;;;11.20;99.90;;;;;;4967407;28;20061;-77
2023/10/30 05:37:15;;;;;;;7.68;1.67;;;11.20;99.90;;;;;;4983244;28;20042;-77
2023/10/30 05:39:42;;;;;;;7.05;1.20;;;11.30;99.90;;;;;;4992728;28;20053;-78
2023/10/30 05:42:07;;;;;;;4.35;0.95;;;11.20;99.90;;;;;;4982560;28;20042;-77
2023/10/30 05:44:33;;;;;;;5.90;1.25;;;11.20;99.90;;;;;;4980471;28;20044;-77
2023/10/30 05:46:58;;;;;;;7.20;1.30;;;11.20;99.90;;;;;;4968353;28;20090;-78
2023/10/30 05:49:25;;;;;;;12.35;1.50;;;11.20;99.90;;;;;;4952803;28;20041;-78
2023/10/30 05:51:51;;;;;;;11.30;1.48;;;11.20;99.90;;;;;;4970297;28;20395;-77
2023/10/30 05:54:17;;;;;;;6.25;1.15;;;11.20;99.90;;;;;;4998592;28;20034;-78
2023/10/30 05:56:43;;;;;;;10.27;1.17;;;11.10;99.90;;;;;;4985620;28;20394;-77
2023/10/30 05:59:08;;;;;;;5.18;0.90;;;11.20;99.90;;;;;;5000770;28;20517;-77
2023/10/30 06:01:34;;;;;;;9.27;1.63;;;11.20;99.90;;;;;;4982977;28;20041;-78
2023/10/30 06:03:59;;;;;;;6.38;1.10;;;11.20;99.90;;;;;;4983028;28;20478;-78
2023/10/30 06:06:25;;;;;;;3.90;1.08;;;11.20;99.90;;;;;;4967090;28;20026;-78
2023/10/30 06:08:51;;;;;;;10.05;2.08;;;11.10;99.90;;;;;;4983012;28;20077;-78
2023/10/30 06:11:17;;;;;;;6.25;1.23;;;11.20;99.90;;;;;;4982250;28;20069;-77
2023/10/30 06:13:42;;;;;;;5.35;1.10;;;11.20;99.90;;;;;;4969747;28;20058;-77
2023/10/30 06:16:18;;;;;;;9.30;1.63;;;11.10;99.90;;;;;;4967144;28;20393;-77
2023/10/30 06:18:44;;;;;;;10.40;1.23;;;11.10;99.90;;;;;;4985070;28;20514;-77
2023/10/30 06:21:14;;;;;;;7.63;1.40;;;11.10;99.90;;;;;;5002641;28;20034;-77
2023/10/30 06:23:40;;;;;;;7.82;1.88;;;11.10;99.90;;;;;;4969121;28;20041;-78
2023/10/30 06:26:09;;;;;;;7.28;1.15;;;11.10;99.90;;;;;;5002247;28;20414;-76
2023/10/30 06:28:35;;;;;;;8.63;1.58;;;11.10;99.90;;;;;;5004409;28;20371;-78
2023/10/30 06:31:03;;;;;;;12.18;2.05;;;11.00;99.90;;;;;;4985068;28;20494;-78
2023/10/30 06:33:31;;;;;;;8.27;1.50;;;11.00;99.90;;;;;;4995434;28;20474;-79
2023/10/30 06:35:58;;;;;;;11.43;1.33;;;11.00;99.90;;;;;;4955195;28;20046;-79
2023/10/30 06:38:24;;;;;;;3.72;1.23;;;11.00;99.90;;;;;;4986975;28;20483;-78
2023/10/30 06:40:50;;;;;;;6.78;1.00;;;11.00;99.90;;;;;;4987236;28;20037;-78
2023/10/30 06:43:15;;;;;;;10.45;1.50;;;11.00;99.90;;;;;;4986074;28;20038;-80
2023/10/30 06:45:41;;;;;;;6.90;1.30;;;10.90;99.90;;;;;;4998862;28;20038;-78
2023/10/30 06:48:07;;;;;;;3.63;1.55;;;10.90;99.90;;;;;;4972916;28;20058;-78
2023/10/30 06:50:33;;;;;;;5.57;1.30;;;11.30;99.90;;;;;;4998936;28;20108;-78
2023/10/30 06:52:58;;;;;;;4.75;1.27;;;10.90;99.90;;;;;;4972520;28;20522;-77
2023/10/30 06:55:24;;;;;;;6.38;1.05;;;10.90;99.90;;;;;;5000023;28;20437;-78
2023/10/30 06:57:49;;;;;;;4.30;0.93;;;10.90;99.90;;;;;;4986882;28;20045;-77
2023/10/30 07:00:18;;;;;;;4.45;1.00;;;10.90;99.90;;;;;;4987745;28;20487;-79
2023/10/30 07:02:44;;;;;;;7.45;1.88;;;10.80;99.90;;;;;;4985217;28;20052;-77
2023/10/30 07:05:10;;;;;;;8.88;1.40;;;10.80;99.90;;;;;;4986121;28;20038;-79
2023/10/30 07:07:36;;;;;;;8.20;1.23;;;10.90;99.90;;;;;;4970644;28;20030;-77
2023/10/30 07:10:02;;;;;;;6.28;1.40;;;10.90;99.90;;;;;;4987833;28;20090;-78
2023/10/30 07:12:28;;;;;;;4.65;1.17;;;10.80;99.90;;;;;;4988081;28;20111;-78
2023/10/30 07:14:54;;;;;;;11.57;1.67;;;10.80;99.90;;;;;;5007356;28;20026;-77
2023/10/30 07:17:19;;;;;;;8.82;1.60;;;10.80;99.90;;;;;;5004344;28;20404;-78
2023/10/30 07:19:46;;;;;;;7.13;0.90;;;10.80;99.90;;;;;;5004476;28;20034;-78
2023/10/30 07:22:12;;;;;;;6.50;1.40;;;10.80;99.90;;;;;;4984592;28;20034;-78
2023/10/30 07:24:37;;;;;;;10.68;1.85;;;10.80;99.90;;;;;;4985069;28;20552;-76
2023/10/30 07:27:03;;;;;;;6.30;1.35;;;10.80;99.90;;;;;;5002301;28;20046;-77
2023/10/30 07:29:29;;;;;;;6.32;1.80;;;10.80;99.90;;;;;;4979927;28;20034;-79
2023/10/30 07:31:55;;;;;;;5.05;1.02;;;10.90;99.90;;;;;;4991851;28;20125;-79
2023/10/30 07:34:21;;;;;;;7.18;1.48;;;10.90;99.90;;;;;;4987286;28;20049;-80
2023/10/30 07:36:47;;;;;;;4.22;1.85;;;10.90;99.90;;;;;;5002213;28;20031;-79
2023/10/30 07:39:13;;;;;;;4.60;1.02;;;10.90;99.90;;;;;;4990061;28;20445;-80
2023/10/30 07:41:39;;;;;;;11.55;1.60;;;10.90;99.90;;;;;;5001523;28;20344;-80
2023/10/30 07:44:07;;;;;;;8.38;2.03;;;11.00;99.90;;;;;;4990956;28;20054;-80
2023/10/30 07:46:32;;;;;;;10.20;1.67;;;11.10;99.90;;;;;;4974761;28;20401;-80
2023/10/30 07:48:58;;;;;;;12.30;1.42;;;11.10;99.90;;;;;;4991781;28;20034;-80
2023/10/30 07:51:23;;;;;;;5.05;1.20;;;11.10;99.90;;;;;;4998446;28;20030;-80
2023/10/30 07:53:49;;;;;;;6.80;1.15;;;11.10;99.90;;;;;;4989108;28;20061;-80
2023/10/30 07:56:15;;;;;;;10.32;1.88;;;11.30;99.90;;;;;;5004236;28;20034;-80
2023/10/30 07:58:40;;;;;;;4.72;1.20;;;11.40;99.90;;;;;;5017663;28;20101;-80
2023/10/30 08:01:06;;;;;;;6.90;1.08;;;11.50;99.90;;;;;;4969727;28;20110;-79
2023/10/30 08:03:32;;;;;;;13.38;2.42;;;11.50;99.90;;;;;;4986238;28;20033;-79
2023/10/30 08:06:02;;;;;;;6.95;1.73;;;11.50;99.90;;;;;;4969227;28;20607;-79
2023/10/30 08:08:28;;;;;;;7.68;1.30;;;11.60;99.90;;;;;;4984904;28;20034;-79
2023/10/30 08:10:54;;;;;;;10.25;1.80;;;11.70;99.90;;;;;;5006216;28;20394;-80
2023/10/30 08:13:20;;;;;;;5.20;2.35;;;11.70;99.90;;;;;;5018163;28;20046;-77
2023/10/30 08:15:46;;;;;;;8.80;1.50;;;11.90;99.90;;;;;;4982414;28;20039;-77
2023/10/30 08:18:12;;;;;;;8.20;1.30;;;11.90;99.90;;;;;;4998484;28;20036;-78
2023/10/30 08:20:37;;;;;;;4.50;1.25;;;12.10;99.90;;;;;;4983743;28;20703;-77
2023/10/30 08:23:03;;;;;;;8.98;1.80;;;12.40;99.90;;;;;;4968734;28;20049;-79
2023/10/30 08:25:28;;;;;;;7.43;2.30;;;12.60;99.90;;;;;;5013894;28;20034;-77
2023/10/30 08:27:56;;;;;;;4.40;1.70;;;12.80;99.90;;;;;;4984064;28;20027;-77
2023/10/30 08:30:22;;;;;;;5.88;1.65;;;12.90;99.90;;;;;;4984003;28;20034;-78
2023/10/30 08:32:50;;;;;;;11.52;1.30;;;13.10;99.90;;;;;;4985023;28;20085;-78
2023/10/30 08:35:16;;;;;;;5.68;1.30;;;13.30;99.90;;;;;;4988075;28;20130;-77
2023/10/30 08:37:41;;;;;;;9.80;1.58;;;13.30;99.90;;;;;;4968370;28;20059;-78
2023/10/30 08:40:08;;;;;;;5.75;1.45;;;13.40;99.90;;;;;;4968132;28;20031;-78
2023/10/30 08:42:34;;;;;;;5.72;1.52;;;13.50;99.90;;;;;;4981686;28;20042;-77
2023/10/30 08:44:59;;;;;;;9.60;1.50;;;13.60;99.90;;;;;;4999453;28;20044;-78
2023/10/30 08:47:25;;;;;;;6.43;1.40;;;13.70;99.90;;;;;;5003784;28;20045;-78
2023/10/30 08:49:50;;;;;;;6.00;1.27;;;13.80;99.90;;;;;;4964566;28;20034;-78
2023/10/30 08:52:16;;;;;;;7.80;2.22;;;13.90;99.90;;;;;;4983140;28;20459;-78
2023/10/30 08:54:43;;;;;;;7.65;1.60;;;14.10;99.90;;;;;;4994752;28;20493;-78
2023/10/30 08:57:08;;;;;;;6.20;1.55;;;14.20;99.90;;;;;;4981544;28;20034;-78
2023/10/30 08:59:38;;;;;;;4.07;0.80;;;14.40;99.90;;;;;;4968049;28;20719;-78
2023/10/30 09:02:05;;;;;;;6.93;2.60;;;14.40;99.90;;;;;;4981958;28;20506;-79
2023/10/30 09:04:33;;;;;;;4.35;1.20;;;14.50;99.90;;;;;;4998406;28;20038;-78
2023/10/30 09:06:58;;;;;;;9.82;2.17;;;14.60;99.90;;;;;;4983576;28;20038;-77
2023/10/30 09:09:24;;;;;;;8.45;1.40;;;14.70;99.90;;;;;;4976535;28;20033;-78
2023/10/30 09:11:50;;;;;;;6.65;2.25;;;14.80;99.90;;;;;;4967085;28;20054;-78
2023/10/30 09:14:17;;;;;;;6.18;1.35;;;14.90;99.90;;;;;;4984731;28;20137;-75
2023/10/30 09:16:43;;;;;;;5.50;1.20;;;14.90;99.90;;;;;;4970811;28;20022;-78
2023/10/30 09:19:08;;;;;;;4.78;1.45;;;15.00;99.90;;;;;;4977429;28;20033;-79
2023/10/30 09:21:34;;;;;;;5.07;1.45;;;15.10;99.90;;;;;;4993775;28;20030;-78
2023/10/30 09:23:59;;;;;;;4.55;2.05;;;15.20;99.90;;;;;;4965406;28;20537;-79
2023/10/30 09:26:26;;;;;;;10.65;3.08;;;15.30;99.90;;;;;;4998655;28;20030;-78
2023/10/30 09:28:54;;;;;;;3.97;1.05;;;15.30;99.90;;;;;;4981677;28;20038;-78
2023/10/30 09:31:20;;;;;;;7.07;1.25;;;15.40;99.90;;;;;;4982442;28;20498;-78
2023/10/30 09:33:45;;;;;;;3.08;1.02;;;15.40;99.90;;;;;;4966524;28;20030;-78
2023/10/30 09:36:11;;;;;;;1.23;0.45;;;15.50;99.90;;;;;;4966139;28;20026;-79
2023/10/30 09:38:37;;;;;;;2.80;1.08;;;15.60;99.90;;;;;;4966025;28;20446;-78
2023/10/30 09:41:04;;;;;;;3.05;1.23;;;15.60;99.90;;;;;;4997090;28;20034;-79
2023/10/30 09:43:33;;;;;;;5.72;1.25;;;15.70;99.90;;;;;;4985310;28;20042;-79
2023/10/30 09:46:00;;;;;;;3.50;1.10;;;15.80;99.90;;;;;;4965488;28;20042;-79
2023/10/30 09:48:26;;;;;;;2.03;1.00;;;15.80;99.90;;;;;;4995108;28;20027;-78
2023/10/30 09:50:51;;;;;;;4.80;1.13;;;15.90;99.90;;;;;;4983332;28;20038;-78
2023/10/30 09:53:18;;;;;;;9.48;1.23;;;16.00;99.90;;;;;;4981641;28;20447;-78
2023/10/30 09:55:44;;;;;;;2.30;0.68;;;16.00;99.90;;;;;;4982487;28;20465;-78
2023/10/30 09:58:09;;;;;;;6.28;1.40;;;16.00;99.90;;;;;;4998412;28;20144;-79
2023/10/30 10:00:36;;;;;;;2.17;0.98;;;16.10;99.90;;;;;;4995221;28;20076;-79
2023/10/30 10:03:04;;;;;;;1.25;0.68;;;16.10;99.90;;;;;;4996689;28;20512;-80
2023/10/30 10:05:31;;;;;;;2.38;0.93;;;16.10;99.90;;;;;;4983152;28;20494;-78
2023/10/30 10:07:56;;;;;;;3.97;0.60;;;16.10;99.90;;;;;;4983659;28;20045;-77
2023/10/30 10:10:22;;;;;;;1.30;0.70;;;16.20;99.90;;;;;;4965882;28;20031;-79
2023/10/30 10:12:51;;;;;;;3.97;0.70;;;16.30;99.90;;;;;;4982799;28;20112;-78
2023/10/30 10:15:17;;;;;;;4.93;1.10;;;16.30;99.90;;;;;;4978685;28;20038;-79
2023/10/30 10:17:44;;;;;;;5.43;1.00;;;16.40;99.90;;;;;;4997454;28;20030;-78
2023/10/30 10:20:11;;;;;;;2.55;0.82;;;16.50;99.90;;;;;;4981256;28;20419;-79
2023/10/30 10:22:36;;;;;;;3.42;0.77;;;16.60;99.90;;;;;;4981769;28;20510;-79
2023/10/30 10:25:02;;;;;;;2.92;0.93;;;16.70;99.90;;;;;;4966389;28;20097;-79
2023/10/30 10:27:28;;;;;;;2.70;0.98;;;16.70;99.90;;;;;;4964817;28;20574;-79
2023/10/30 10:29:57;;;;;;;2.38;0.68;;;16.80;99.90;;;;;;5011801;28;20109;-79
2023/10/30 10:32:25;;;;;;;1.42;0.60;;;17.00;99.90;;;;;;4981706;28;20041;-79
2023/10/30 10:34:51;;;;;;;2.10;0.70;;;17.00;99.90;;;;;;4982408;28;20027;-79
2023/10/30 10:37:17;;;;;;;2.15;0.50;;;17.10;99.90;;;;;;4979073;28;20084;-79
2023/10/30 10:39:49;;;;;;;2.20;0.60;;;17.20;99.90;;;;;;4999343;28;20487;-78
2023/10/30 10:42:17;;;;;;;3.70;0.65;;;17.20;99.90;;;;;;4996665;28;20062;-78
2023/10/30 10:44:44;;;;;;;5.05;0.57;;;17.10;99.90;;;;;;4981700;28;20080;-79
2023/10/30 10:47:10;;;;;;;0.70;0.50;;;17.20;99.90;;;;;;4999333;28;20388;-79
2023/10/30 10:49:35;;;;;;;2.78;0.73;;;17.30;99.90;;;;;;4994230;28;20041;-79
2023/10/30 10:52:02;;;;;;;2.47;0.68;;;17.30;99.90;;;;;;4978500;28;20056;-79
2023/10/30 10:54:29;;;;;;;2.00;0.68;;;17.30;99.90;;;;;;4997126;28;20122;-80
2023/10/30 10:56:54;;;;;;;1.05;0.73;;;17.40;99.90;;;;;;4980795;28;20493;-77
2023/10/30 10:59:21;;;;;;;2.60;0.70;;;17.60;99.90;;;;;;5009280;28;20034;-78
2023/10/30 11:01:48;;;;;;;3.17;0.93;;;17.70;99.90;;;;;;4979125;28;20046;-77
2023/10/30 11:04:14;;;;;;;2.85;0.55;;;17.60;99.90;;;;;;4981301;28;20026;-78
2023/10/30 11:06:45;;;;;;;1.15;0.70;;;17.70;99.90;;;;;;5001400;28;20505;-78
2023/10/30 11:09:32;;;;;;;1.65;0.75;;;17.80;99.90;;;;;;4996107;28;20109;-77
2023/10/30 11:12:33;;;;;;;3.83;1.40;;;17.90;99.90;;;;;;4967688;28;20031;-79
2023/10/30 11:15:01;;;;;;;1.38;0.80;;;17.90;99.90;;;;;;4967522;28;20299;-79
2023/10/30 11:17:27;;;;;;;3.08;0.75;;;17.90;99.90;;;;;;4968645;28;20470;-79
2023/10/30 11:20:09;;;;;;;1.80;0.85;;;18.00;99.90;;;;;;4984886;28;20030;-79
2023/10/30 11:22:39;;;;;;;3.70;0.73;;;17.90;99.90;;;;;;4985416;28;20034;-79
2023/10/30 11:25:05;;;;;;;2.38;0.80;;;18.10;99.90;;;;;;4968693;28;20516;-80
2023/10/30 11:27:35;;;;;;;1.13;0.80;;;18.00;99.90;;;;;;4975538;28;20113;-78
2023/10/30 11:30:11;;;;;;;2.63;0.68;;;18.20;99.90;;;;;;4985488;28;20267;-78
2023/10/30 11:32:58;;;;;;;0.75;0.68;;;18.30;99.90;;;;;;4301335;28;9999983;-79
2023/10/30 11:35:26;;;;;;;6.03;1.00;;;18.30;99.90;;;;;;4963528;28;20438;-79
2023/10/30 11:37:55;;;;;;;1.55;0.90;;;18.50;99.90;;;;;;4982403;28;20121;-78
2023/10/30 11:40:20;;;;;;;1.35;0.80;;;18.60;99.90;;;;;;4994536;28;20048;-80
2023/10/30 11:42:46;;;;;;;1.17;0.80;;;18.50;99.90;;;;;;5014058;28;20030;-80
2023/10/30 11:45:22;;;;;;;1.63;0.80;;;18.40;99.90;;;;;;4984050;28;20057;-80
2023/10/30 11:48:05;;;;;;;5.07;1.02;;;18.30;99.90;;;;;;4995961;28;20085;-80
2023/10/30 11:50:43;;;;;;;0.77;0.63;;;18.40;99.90;;;;;;4996779;28;20035;-79
2023/10/30 11:53:12;;;;;;;1.90;1.00;;;18.40;99.90;;;;;;4973246;28;20049;-82
2023/10/30 11:55:40;;;;;;;1.15;0.65;;;18.40;99.90;;;;;;4982080;28;20038;-82
2023/10/30 11:58:08;;;;;;;2.33;0.85;;;18.40;99.90;;;;;;4998479;28;20411;-81
2023/10/30 12:00:34;;;;;;;0.68;0.68;;;18.50;99.90;;;;;;4966709;28;20844;-81
2023/10/30 12:02:59;;;;;;;1.35;0.57;;;18.40;99.90;;;;;;4985181;28;20038;-81
2023/10/30 12:05:28;;;;;;;2.13;0.60;;;18.40;99.90;;;;;;4985596;28;20045;-81
2023/10/30 12:07:53;;;;;;;2.05;0.65;;;18.30;99.90;;;;;;4968200;28;20151;-81
2023/10/30 12:10:19;;;;;;;3.63;0.60;;;18.20;99.90;;;;;;5003718;28;20033;-81
2023/10/30 12:12:45;;;;;;;0.52;0.52;;;18.20;99.90;;;;;;4969299;28;20482;-82
2023/10/30 12:15:10;;;;;;;0.63;0.52;;;18.10;99.90;;;;;;5000236;28;20023;-81
2023/10/30 12:17:36;;;;;;;1.00;0.68;;;18.10;99.90;;;;;;4969094;28;20040;-81
2023/10/30 12:20:03;;;;;;;0.75;0.30;;;17.90;99.90;;;;;;4970137;28;20065;-81
2023/10/30 12:22:29;;;;;;;0.43;0.40;;;18.10;99.90;;;;;;4982861;28;20049;-81
2023/10/30 12:24:56;;;;;;;1.45;0.50;;;18.10;99.90;;;;;;4989700;28;20038;-81
2023/10/30 12:27:22;;;;;;;1.33;0.50;;;18.10;99.90;;;;;;4990021;28;20034;-81
2023/10/30 12:29:53;;;;;;;5.47;1.00;;;18.20;99.90;;;;;;4969283;28;20068;-79
2023/10/30 12:32:19;;;;;;;0.93;0.57;;;18.10;99.90;;;;;;4985429;28;20038;-81
2023/10/30 12:34:45;;;;;;;1.77;0.60;;;18.10;99.90;;;;;;4968173;28;20030;-81
2023/10/30 12:37:17;;;;;;;1.23;0.30;;;18.00;99.90;;;;;;5000109;28;20027;-81
2023/10/30 12:40:25;;;;;;;2.45;0.43;;;18.00;99.90;;;;;;4998075;28;20034;-81
2023/10/30 12:42:50;;;;;;;3.50;0.40;;;18.00;99.90;;;;;;4992099;28;20058;-81
2023/10/30 12:45:17;;;;;;;1.67;0.25;;;18.00;99.90;;;;;;4984273;28;20026;-81
2023/10/30 12:47:44;;;;;;;0.30;0.30;;;18.10;99.90;;;;;;4968094;28;20077;-81
2023/10/30 12:50:11;;;;;;;0.82;0.40;;;18.10;99.90;;;;;;5000269;28;20046;-81
2023/10/30 12:52:36;;;;;;;1.30;0.40;;;18.00;99.90;;;;;;4968363;28;20034;-81
2023/10/30 12:55:02;;;;;;;2.20;0.50;;;17.90;99.90;;;;;;4997274;28;20121;-80
2023/10/30 12:57:28;;;;;;;1.08;0.40;;;17.90;99.90;;;;;;4987419;28;20030;-81
2023/10/30 12:59:53;;;;;;;1.85;0.40;;;18.00;99.90;;;;;;4995391;28;20034;-81